Terminal Aerodrome Forecast
Issued by NWS

Home | Current Version | Previous Version | Text Only | Print | Product List | Glossary On
Versions: 1 2 3 4 5 6 7 8 9 10 11 12 13 14 15 16 17
000
FTUS41 KGYX 311736
TAFMHT
TAF
KMHT 311736Z 3118/0118 21007KT P6SM SCT120 BKN200
     FM010100 21003KT P6SM BKN050
      TEMPO 0106/0110 -SHRA
     FM011400 33005KT P6SM BKN050=

USA.gov is the U.S. government's official web portal to all federal, state and local government web resources and services.